• Join FlightAware (Why Join?)
  • Login
  • US Flag 
06:26PM EDT


 

Airport Tracker/Info


-or-


 

Live Flight TrackerFlight Track Log ✈ UAL5900 ✈ 14-Apr-2013 ✈ KORD - KBNA

Flight Track Log - Related Links

Times and Time Zones

All times are in EDT time to prevent confusion due to time zone crossing. See the UAL5900 flight status page for this flight to view local times or setup timezone preferences in your user account.

Time Position Orientation Groundspeed Altitude Reporting Facility
EDT Latitude Longitude Course Direction KTS MPH feet Rate Location/Type
07:16PM 41.9333 -87.9333 186° South 184 212 3,200  Level Chicago TRACON
07:17PM 41.8833 -87.9333 180° South 196 226 4,900 1,920 Climbing Chicago TRACON
07:19PM 41.8131 -87.9308 178° South 215 247 7,300 2,100 Climbing Chicago Center
07:20PM 41.7483 -87.9225 175° South 232 267 9,500 1,620 Climbing Chicago Center
07:21PM 41.6586 -87.9106 174° South 279 321 10,700 1,260 Climbing Chicago Center
07:22PM 41.4048 -87.7760 186° South  Level Estimated
07:22PM 41.5719 -87.8992 174° South 307 353 12,200  Level Chicago Center
07:23PM 41.4825 -87.8878 175° South 318 366 13,900 1,440 Climbing Chicago Center
07:24PM 41.3911 -87.8794 176° South 327 376 15,200 1,200 Climbing Chicago Center
07:25PM 41.2983 -87.8889 184° South 330 380 16,500 1,200 Climbing Chicago Center
07:26PM 41.2022 -87.8928 182° South 339 390 17,700 1,260 Climbing Chicago Center
07:27PM 41.1033 -87.8894 179° South 351 404 19,200 1,260 Climbing Chicago Center
07:28PM 41.0028 -87.8850 178° South 359 413 20,400 1,260 Climbing Chicago Center
07:29PM 40.8794 -87.8819 179° South 369 425 21,900 1,260 Climbing Chicago Center
07:30PM 40.7767 -87.8803 179° South 371 427 23,100 1,200 Climbing Chicago Center
07:31PM 40.6722 -87.8753 178° South 376 433 24,400 1,200 Climbing Chicago Center
07:32PM 40.5675 -87.8731 179° South 378 435 25,600 1,140 Climbing Chicago Center
07:33PM 40.4622 -87.8686 178° South 379 436 26,800 1,140 Climbing Chicago Center
07:34PM 40.3575 -87.8672 179° South 379 436 28,000 1,200 Climbing Chicago Center
07:34PM 40.3206 -87.8625 174° South 378 435 28,500 1,260 Climbing Indianapolis Center
07:35PM 40.1931 -87.8575 178° South 379 436 29,800 720 Climbing Indianapolis Center
07:36PM 40.0839 -87.8528 178° South 385 443 30,000 60 Climbing Indianapolis Center
07:37PM 39.9675 -87.8433 176° South 401 461 30,000  Level Indianapolis Center
07:39PM 39.8453 -87.8394 179° South 420 483 30,000  Level Indianapolis Center
07:40PM 39.7228 -87.8308 177° South 431 496 30,000  Level Indianapolis Center
07:41PM 39.6003 -87.7989 169° South 441 507 30,000  Level Indianapolis Center
07:42PM 39.4775 -87.7683 169° South 447 514 30,000  Level Indianapolis Center
07:43PM 39.3550 -87.7378 169° South 447 514 30,000  Level Indianapolis Center
07:44PM 39.2064 -87.7011 169° South 452 520 30,000  Level Indianapolis Center
07:45PM 39.0844 -87.6703 169° South 447 514 30,000  Level Indianapolis Center
07:46PM 38.9603 -87.6394 169° South 452 520 30,000  Level Indianapolis Center
07:47PM 38.8364 -87.6094 169° South 453 521 30,000  Level Indianapolis Center
07:48PM 38.7119 -87.5797 169° South 454 522 30,000  Level Indianapolis Center
07:49PM 38.5864 -87.5481 169° South 457 526 30,000  Level Indianapolis Center
07:50PM 38.4619 -87.5189 170° South 457 526 30,000  Level Indianapolis Center
07:51PM 38.3367 -87.4889 169° South 459 528 30,000  Level Indianapolis Center
07:52PM 38.1878 -87.4533 169° South 459 528 30,000  Level Indianapolis Center
07:53PM 38.0631 -87.4236 169° South 459 528 30,000  Level Indianapolis Center
07:54PM 37.9364 -87.3925 169° South 462 532 30,000 -720 Level Indianapolis Center
07:56PM 37.6847 -87.3325 169° South 449 517 27,900 -1,440 Descending Indianapolis Center
07:57PM 37.5442 -87.2994 169° South 447 514 25,600 -2,040 Descending Memphis Center
07:58PM 37.4372 -87.2747 170° South 447 514 23,700 -1,440 Descending Memphis Center
07:59PM 37.3200 -87.2456 169° South 441 507 22,800 -1,800 Descending Memphis Center
08:00PM 37.2047 -87.2161 169° South 397 457 20,200 -3,120 Descending Memphis Center
08:01PM 37.0869 -87.1792 166° South 384 442 16,500 -2,700 Descending Memphis Center
08:02PM 37.0031 -87.1542 167° South 383 441 14,700 -2,220 Descending Memphis Center
08:03PM 36.9042 -87.1217 165° South 372 428 12,200 -1,920 Descending Memphis Center
08:04PM 36.8097 -87.0944 167° South 358 412 10,900 -1,200 Descending Memphis Center
08:05PM 36.7272 -87.0433 154° Southeast 320 368 9,900 -1,020 Descending Memphis Center
08:06PM 36.6656 -87.0072 155° Southeast 271 312 8,900 -540 Descending Memphis Center
08:07PM 36.6083 -86.9656 150° Southeast 248 285 8,900 -600 Level Memphis Center
08:08PM 36.5486 -86.9164 147° Southeast 253 291 7,800 -1,320 Descending Memphis Center
08:09PM 36.4911 -86.8722 148° Southeast 254 292 6,300 -1,380 Descending Memphis Center
08:10PM 36.4356 -86.8283 148° Southeast 248 285 5,100 -1,080 Descending Memphis Center
08:11PM 36.3886 -86.7917 148° Southeast 232 267 4,200 -900 Descending Memphis Center
08:12PM 36.3375 -86.7528 148° Southeast 220 253 3,300 -1,080 Descending Memphis Center
08:13PM 36.2886 -86.7189 151° Southeast 215 247 2,100 -660 Descending Memphis Center
08:14PM 36.2375 -86.6825 150° Southeast 204 235 2,000 -180 Descending Memphis Center
08:15PM 36.1931 -86.6589 157° South 193 222 1,800 -480 Descending Memphis Center
08:16PM 36.1581 -86.6706 195° South 149 171 1,100 -600 Descending Memphis Center
08:17PM 36.1206 -86.6750 185° South 135 155 700 -420 Descending Memphis Center
08:19PM 36.1167 -86.6667 North  Level FlightAware Approximate
08:26PM 36.1245 -86.6782 North  Level Estimated
08:27PM 36.1245 -86.6782 North  Level Estimated
08:28PM 36.1245 -86.6782 North  Level Estimated
08:29PM 36.1245 -86.6782 North  Level Estimated
08:30PM 36.1245 -86.6782 North  Level Estimated
08:31PM 36.1245 -86.6782 North  Level Estimated
08:32PM 36.1245 -86.6782 North  Level Estimated
08:33PM 36.1245 -86.6782 North  Level Estimated